Time;durP1;ratioP1;P1;durP2;ratioP2;P2;SDS_P1;SDS_P2;PMS_P1;PMS_P2;Temp;Humidity;BMP_temperature;BMP_pressure;BME280_temperature;BME280_humidity;BME280_pressure;Samples;Min_cycle;Max_cycle;Signal;HPM_P1;HPM_P2
2023/01/17 00:01:52;;;;;;;11.00;8.13;;;;;;;;;;5033761;28;20025;-68
2023/01/17 00:09:51;;;;;;;12.20;8.35;;;;;;;;;;5033215;28;20135;-70
2023/01/17 00:12:19;;;;;;;10.48;7.70;;;;;;;;;;5033325;28;20080;-68
2023/01/17 00:14:45;;;;;;;10.23;7.85;;;;;;;;;;5033178;28;20017;-70
2023/01/17 00:17:10;;;;;;;10.23;7.55;;;;;;;;;;5033143;28;20033;-69
2023/01/17 01:34:31;;;;;;;9.60;7.65;;;;;;;;;;5032498;28;20444;-68
2023/01/17 01:36:57;;;;;;;10.95;7.97;;;;;;;;;;5033346;28;20047;-69
2023/01/17 01:39:22;;;;;;;9.68;7.40;;;;;;;;;;5036485;28;20059;-68
2023/01/17 01:41:48;;;;;;;11.45;7.88;;;;;;;;;;5036175;28;20395;-68
2023/01/17 01:44:43;;;;;;;11.07;7.97;;;;;;;;;;5036032;28;20034;-67
2023/01/17 01:47:14;;;;;;;10.25;7.30;;;;;;;;;;5036178;28;20068;-67
2023/01/17 01:49:40;;;;;;;10.57;7.45;;;;;;;;;;5035863;28;20104;-68
2023/01/17 01:52:09;;;;;;;11.13;7.40;;;;;;;;;;5036133;28;20147;-68
2023/01/17 01:54:47;;;;;;;10.88;7.47;;;;;;;;;;5035796;28;20108;-67
2023/01/17 01:57:17;;;;;;;11.80;7.32;;;;;;;;;;5035958;28;20397;-67
2023/01/17 01:59:48;;;;;;;9.55;6.95;;;;;;;;;;5035813;28;20029;-67
2023/01/17 02:02:14;;;;;;;11.05;7.57;;;;;;;;;;5035636;28;20044;-68
2023/01/17 02:04:40;;;;;;;10.40;7.68;;;;;;;;;;5035623;28;20483;-67
2023/01/17 02:07:11;;;;;;;9.77;7.35;;;;;;;;;;5035495;28;20037;-67
2023/01/17 02:09:37;;;;;;;10.30;7.50;;;;;;;;;;5017701;28;20045;-68
2023/01/17 02:12:04;;;;;;;11.05;8.05;;;;;;;;;;5035792;28;20022;-69
2023/01/17 02:14:29;;;;;;;10.13;7.30;;;;;;;;;;5035472;28;20587;-67
2023/01/17 02:17:17;;;;;;;10.65;7.13;;;;;;;;;;5035334;28;20029;-66
2023/01/17 02:20:19;;;;;;;9.60;7.05;;;;;;;;;;5035589;28;20076;-67
2023/01/17 02:23:02;;;;;;;11.00;7.70;;;;;;;;;;5035305;28;20496;-67
2023/01/17 02:25:49;;;;;;;11.50;7.65;;;;;;;;;;5035484;28;20029;-67
2023/01/17 02:28:36;;;;;;;10.68;7.28;;;;;;;;;;5035159;28;20112;-67
2023/01/17 02:31:16;;;;;;;10.98;7.05;;;;;;;;;;5035180;28;20021;-68
2023/01/17 02:34:05;;;;;;;8.80;6.45;;;;;;;;;;5035155;28;20033;-67
2023/01/17 02:36:37;;;;;;;10.07;7.32;;;;;;;;;;5034981;28;20029;-68
2023/01/17 02:39:11;;;;;;;9.43;7.15;;;;;;;;;;5035097;28;20021;-68
2023/01/17 02:41:41;;;;;;;10.48;7.70;;;;;;;;;;5034860;28;20037;-67
2023/01/17 02:44:09;;;;;;;10.25;6.88;;;;;;;;;;5035155;28;20029;-67
2023/01/17 02:46:50;;;;;;;10.65;7.72;;;;;;;;;;5034611;28;20038;-67
2023/01/17 02:49:19;;;;;;;7.95;6.68;;;;;;;;;;5034486;28;20031;-68
2023/01/17 02:51:44;;;;;;;10.02;7.38;;;;;;;;;;5035379;28;20037;-71
2023/01/17 02:54:39;;;;;;;10.73;7.15;;;;;;;;;;5044275;28;20358;-67
2023/01/17 02:57:17;;;;;;;9.48;7.22;;;;;;;;;;5043416;28;20025;-66
2023/01/17 02:59:56;;;;;;;8.95;7.15;;;;;;;;;;5053615;28;20079;-68
2023/01/17 03:03:07;;;;;;;9.15;6.72;;;;;;;;;;5053754;28;20036;-67
2023/01/17 03:05:43;;;;;;;10.70;7.13;;;;;;;;;;5052949;28;20115;-67
2023/01/17 03:08:11;;;;;;;10.25;7.30;;;;;;;;;;5053794;28;20571;-67
2023/01/17 03:10:38;;;;;;;9.40;6.57;;;;;;;;;;5054397;28;20033;-67
2023/01/17 03:13:04;;;;;;;9.88;7.20;;;;;;;;;;5054628;28;20033;-68
2023/01/17 03:15:30;;;;;;;9.85;7.38;;;;;;;;;;5053985;28;20476;-67
2023/01/17 03:18:00;;;;;;;10.35;7.03;;;;;;;;;;5054253;28;20373;-69
2023/01/17 03:20:26;;;;;;;8.23;6.45;;;;;;;;;;5053732;28;20422;-68
2023/01/17 03:22:52;;;;;;;9.85;7.30;;;;;;;;;;5054109;28;20032;-68
2023/01/17 03:25:18;;;;;;;10.23;7.20;;;;;;;;;;5053964;28;20025;-68
2023/01/17 03:27:43;;;;;;;10.68;7.57;;;;;;;;;;5054072;28;20083;-68
2023/01/17 03:30:10;;;;;;;10.48;7.00;;;;;;;;;;5053960;28;20119;-68
2023/01/17 03:32:35;;;;;;;10.20;7.43;;;;;;;;;;5054017;28;20025;-67
2023/01/17 03:35:01;;;;;;;9.15;6.72;;;;;;;;;;5053939;28;20109;-68
2023/01/17 03:37:26;;;;;;;9.07;6.57;;;;;;;;;;5053997;28;20025;-69
2023/01/17 03:39:52;;;;;;;10.05;6.85;;;;;;;;;;5053738;28;20523;-69
2023/01/17 03:42:17;;;;;;;8.95;6.72;;;;;;;;;;5054102;28;20031;-68
2023/01/17 03:44:43;;;;;;;9.63;6.95;;;;;;;;;;5053687;28;20468;-68
2023/01/17 03:47:10;;;;;;;11.07;6.80;;;;;;;;;;5053519;28;20040;-67
2023/01/17 03:49:37;;;;;;;10.43;6.97;;;;;;;;;;5053541;28;20079;-67
2023/01/17 03:52:03;;;;;;;10.00;6.53;;;;;;;;;;5053577;28;20025;-68
2023/01/17 03:54:29;;;;;;;10.40;6.95;;;;;;;;;;5053558;28;20546;-69
2023/01/17 03:56:54;;;;;;;9.18;6.65;;;;;;;;;;5053700;28;20116;-70
2023/01/17 03:59:20;;;;;;;8.82;6.70;;;;;;;;;;5052436;28;20500;-69
2023/01/17 04:01:46;;;;;;;8.80;6.20;;;;;;;;;;5035552;28;20025;-68
2023/01/17 04:04:11;;;;;;;9.07;6.45;;;;;;;;;;5053520;28;20070;-68
2023/01/17 04:06:37;;;;;;;8.48;6.45;;;;;;;;;;5053409;28;20029;-68
2023/01/17 04:09:03;;;;;;;8.70;6.57;;;;;;;;;;5052798;28;20049;-68
2023/01/17 04:11:28;;;;;;;9.88;6.57;;;;;;;;;;5053474;28;20072;-68
2023/01/17 04:13:54;;;;;;;9.05;6.85;;;;;;;;;;5053153;28;20079;-70
2023/01/17 04:16:22;;;;;;;8.82;6.13;;;;;;;;;;5053171;28;20059;-68
2023/01/17 04:18:48;;;;;;;8.52;6.43;;;;;;;;;;5052949;28;20048;-68
2023/01/17 04:21:14;;;;;;;9.63;6.60;;;;;;;;;;5053322;28;20413;-68
2023/01/17 04:23:39;;;;;;;8.73;6.50;;;;;;;;;;5035084;28;20556;-68
2023/01/17 04:26:05;;;;;;;9.65;6.80;;;;;;;;;;5052764;28;20108;-68
2023/01/17 04:28:31;;;;;;;8.70;7.03;;;;;;;;;;5052889;28;20025;-68
2023/01/17 04:30:59;;;;;;;8.50;6.40;;;;;;;;;;5052830;28;20025;-68
2023/01/17 04:33:25;;;;;;;10.05;6.32;;;;;;;;;;5052733;28;20029;-69
2023/01/17 04:35:54;;;;;;;9.18;6.65;;;;;;;;;;5052957;28;20029;-68
2023/01/17 04:38:20;;;;;;;9.35;6.60;;;;;;;;;;5035235;28;20487;-68
2023/01/17 04:40:45;;;;;;;8.68;6.47;;;;;;;;;;5052714;28;20120;-69
2023/01/17 04:43:11;;;;;;;8.57;6.18;;;;;;;;;;5052682;28;20033;-68
2023/01/17 04:45:37;;;;;;;10.70;7.15;;;;;;;;;;5052477;28;20036;-69
2023/01/17 04:48:04;;;;;;;9.85;6.57;;;;;;;;;;5052677;28;20040;-68
2023/01/17 04:50:31;;;;;;;7.95;6.40;;;;;;;;;;5052473;28;20036;-67
2023/01/17 04:52:58;;;;;;;8.20;6.55;;;;;;;;;;5052598;28;20460;-67
2023/01/17 04:55:24;;;;;;;8.23;6.75;;;;;;;;;;5034699;28;20025;-69
2023/01/17 04:57:49;;;;;;;8.90;6.78;;;;;;;;;;5052156;28;20021;-68
2023/01/17 05:00:15;;;;;;;9.90;6.93;;;;;;;;;;5052611;28;20112;-67
2023/01/17 05:02:41;;;;;;;8.50;6.40;;;;;;;;;;5052319;28;20121;-67
2023/01/17 05:05:08;;;;;;;10.23;6.65;;;;;;;;;;5052486;28;20496;-67
2023/01/17 05:07:33;;;;;;;8.80;6.38;;;;;;;;;;5051823;28;20106;-68
2023/01/17 05:09:59;;;;;;;9.00;6.70;;;;;;;;;;5052331;28;20110;-69
2023/01/17 05:12:26;;;;;;;8.60;6.70;;;;;;;;;;5052156;28;20483;-68
2023/01/17 05:14:52;;;;;;;8.77;6.60;;;;;;;;;;5052553;28;20078;-67
2023/01/17 05:17:17;;;;;;;9.25;6.90;;;;;;;;;;5052254;28;20407;-67
2023/01/17 05:19:43;;;;;;;9.93;6.80;;;;;;;;;;5052360;28;20533;-68
2023/01/17 05:22:15;;;;;;;9.40;6.35;;;;;;;;;;5052443;28;20104;-68
2023/01/17 05:24:45;;;;;;;8.13;6.05;;;;;;;;;;5052106;28;20029;-68
2023/01/17 05:27:12;;;;;;;10.32;6.88;;;;;;;;;;5051921;28;20040;-67
2023/01/17 05:29:38;;;;;;;8.73;6.45;;;;;;;;;;5052243;28;20029;-67
2023/01/17 05:32:04;;;;;;;9.77;6.22;;;;;;;;;;5052309;28;20029;-67
2023/01/17 05:34:30;;;;;;;10.30;6.53;;;;;;;;;;5052043;28;20025;-68
2023/01/17 05:36:57;;;;;;;8.48;6.20;;;;;;;;;;5052086;28;20380;-68
2023/01/17 05:39:22;;;;;;;8.63;6.28;;;;;;;;;;5051958;28;20061;-67
2023/01/17 05:41:48;;;;;;;7.90;6.00;;;;;;;;;;5052164;28;20061;-68
2023/01/17 05:44:16;;;;;;;7.35;5.85;;;;;;;;;;5034149;28;20444;-68
2023/01/17 05:46:42;;;;;;;9.25;6.25;;;;;;;;;;5051660;28;20029;-68
2023/01/17 05:49:08;;;;;;;9.55;7.03;;;;;;;;;;5051855;28;20036;-69
2023/01/17 05:51:36;;;;;;;8.68;6.13;;;;;;;;;;5051655;28;20036;-68
2023/01/17 05:54:03;;;;;;;8.10;5.97;;;;;;;;;;5051765;28;20029;-68
2023/01/17 05:56:29;;;;;;;7.68;6.07;;;;;;;;;;5051696;28;20044;-68
2023/01/17 05:58:54;;;;;;;8.82;6.25;;;;;;;;;;5051709;28;20457;-68
2023/01/17 06:01:20;;;;;;;8.02;6.28;;;;;;;;;;5051708;28;20048;-67
2023/01/17 06:03:45;;;;;;;9.68;6.57;;;;;;;;;;5033781;28;20052;-67
2023/01/17 06:06:11;;;;;;;7.78;5.70;;;;;;;;;;5051592;28;20025;-67
2023/01/17 06:08:37;;;;;;;9.13;6.10;;;;;;;;;;5051582;28;20068;-69
2023/01/17 06:11:02;;;;;;;7.78;6.25;;;;;;;;;;5017175;28;20029;-68
2023/01/17 06:13:28;;;;;;;9.15;6.65;;;;;;;;;;5051585;28;20021;-68
2023/01/17 06:15:56;;;;;;;7.72;6.28;;;;;;;;;;5051919;28;20025;-67
2023/01/17 06:18:22;;;;;;;8.50;6.45;;;;;;;;;;5051789;28;20036;-68
2023/01/17 06:20:53;;;;;;;8.50;6.32;;;;;;;;;;5048085;28;20029;-68
2023/01/17 06:23:18;;;;;;;9.43;6.47;;;;;;;;;;5049936;28;20033;-71
2023/01/17 06:25:45;;;;;;;7.35;6.13;;;;;;;;;;5054354;28;20021;-68
2023/01/17 06:28:17;;;;;;;9.23;6.15;;;;;;;;;;5045743;28;20043;-68
2023/01/17 06:30:42;;;;;;;8.05;5.97;;;;;;;;;;5026593;28;20024;-69
2023/01/17 06:33:09;;;;;;;7.70;5.90;;;;;;;;;;5051532;28;20024;-70
2023/01/17 06:35:39;;;;;;;7.63;5.97;;;;;;;;;;5022921;28;20021;-68
2023/01/17 06:38:05;;;;;;;;;;;;;;;;;;5045671;28;20044;-69
2023/01/17 06:40:31;;;;;;;7.20;5.43;;;;;;;;;;5046354;28;19994;-71
2023/01/17 06:43:01;;;;;;;7.82;5.95;;;;;;;;;;5054761;28;20021;-67
2023/01/17 06:45:28;;;;;;;6.80;5.60;;;;;;;;;;5054888;28;20036;-70
2023/01/17 06:47:54;;;;;;;7.38;5.93;;;;;;;;;;5054853;28;20055;-71
2023/01/17 06:50:20;;;;;;;7.85;5.55;;;;;;;;;;5048210;28;20021;-72
2023/01/17 06:52:57;;;;;;;7.07;5.38;;;;;;;;;;5044249;28;20025;-67
2023/01/17 06:55:24;;;;;;;6.90;5.50;;;;;;;;;;5042161;28;20030;-70
2023/01/17 06:57:50;;;;;;;8.63;5.63;;;;;;;;;;5042642;28;20023;-69
2023/01/17 07:00:16;;;;;;;8.68;6.13;;;;;;;;;;5044867;28;20432;-68
2023/01/17 07:02:46;;;;;;;7.53;5.88;;;;;;;;;;5041925;28;20025;-71
2023/01/17 07:05:12;;;;;;;7.20;5.78;;;;;;;;;;5043638;28;20021;-68
2023/01/17 07:07:38;;;;;;;6.80;5.45;;;;;;;;;;5044183;28;20063;-70
2023/01/17 07:10:04;;;;;;;7.65;5.80;;;;;;;;;;5043209;28;20036;-68
2023/01/17 07:12:30;;;;;;;6.93;5.60;;;;;;;;;;5043909;28;20021;-72
2023/01/17 07:14:56;;;;;;;8.10;5.57;;;;;;;;;;5044567;28;20068;-69
2023/01/17 07:17:21;;;;;;;7.32;5.68;;;;;;;;;;5042384;28;20048;-71
2023/01/17 07:19:47;;;;;;;8.95;6.05;;;;;;;;;;5038768;28;20064;-71
2023/01/17 07:22:13;;;;;;;6.18;5.10;;;;;;;;;;5043942;28;20029;-70
2023/01/17 07:24:38;;;;;;;6.70;5.10;;;;;;;;;;5043308;28;20025;-71
2023/01/17 07:27:06;;;;;;;7.30;5.75;;;;;;;;;;5044302;28;20037;-67
2023/01/17 07:29:31;;;;;;;6.57;5.13;;;;;;;;;;5042205;28;20124;-68
2023/01/17 07:31:57;;;;;;;7.13;4.95;;;;;;;;;;5042510;28;20097;-68
2023/01/17 07:34:22;;;;;;;8.82;5.82;;;;;;;;;;5039901;28;20029;-69
2023/01/17 07:36:48;;;;;;;6.82;5.43;;;;;;;;;;5043618;28;20376;-70
2023/01/17 07:39:14;;;;;;;7.45;5.38;;;;;;;;;;5042950;28;20426;-69
2023/01/17 07:41:41;;;;;;;7.95;5.68;;;;;;;;;;5033815;28;20029;-67
2023/01/17 07:44:10;;;;;;;6.57;5.10;;;;;;;;;;5033750;28;20164;-71
2023/01/17 07:46:36;;;;;;;6.43;4.97;;;;;;;;;;5033775;28;20433;-67
2023/01/17 07:49:02;;;;;;;6.05;5.07;;;;;;;;;;5016059;28;20021;-70
2023/01/17 07:51:28;;;;;;;7.53;5.43;;;;;;;;;;5033608;28;20105;-68
2023/01/17 07:53:53;;;;;;;6.40;5.20;;;;;;;;;;5033544;28;20207;-69
2023/01/17 07:56:22;;;;;;;7.30;5.38;;;;;;;;;;5033664;28;20092;-67
2023/01/17 07:58:47;;;;;;;6.88;5.38;;;;;;;;;;5033744;28;20103;-68
2023/01/17 08:01:14;;;;;;;6.50;5.30;;;;;;;;;;5033448;28;20501;-68
2023/01/17 08:03:40;;;;;;;7.63;5.18;;;;;;;;;;5015656;28;20029;-68
2023/01/17 08:06:19;;;;;;;7.15;5.18;;;;;;;;;;5033450;28;20487;-69
2023/01/17 08:08:46;;;;;;;5.93;4.97;;;;;;;;;;5033111;28;20124;-69
2023/01/17 08:11:12;;;;;;;6.55;5.00;;;;;;;;;;5033588;28;20052;-69
2023/01/17 08:13:38;;;;;;;5.75;5.03;;;;;;;;;;5033114;28;20117;-68
2023/01/17 08:16:04;;;;;;;8.20;5.80;;;;;;;;;;5035729;28;20101;-70
2023/01/17 08:18:29;;;;;;;6.80;5.50;;;;;;;;;;5033072;28;20500;-68
2023/01/17 08:20:55;;;;;;;6.45;4.90;;;;;;;;;;5033032;28;20017;-71
2023/01/17 08:23:21;;;;;;;11.93;5.32;;;;;;;;;;5051191;28;20028;-68
2023/01/17 08:25:47;;;;;;;5.63;4.72;;;;;;;;;;5049621;28;20041;-71
2023/01/17 08:28:12;;;;;;;7.10;5.18;;;;;;;;;;5028832;28;20036;-70
2023/01/17 08:30:38;;;;;;;24.35;7.00;;;;;;;;;;5035186;28;20079;-68
2023/01/17 08:33:04;;;;;;;6.22;5.40;;;;;;;;;;5035183;28;20025;-72
2023/01/17 08:35:30;;;;;;;5.90;4.57;;;;;;;;;;5053052;28;20059;-71
2023/01/17 08:37:57;;;;;;;6.28;4.65;;;;;;;;;;5052731;28;20029;-73
2023/01/17 08:40:23;;;;;;;5.70;4.97;;;;;;;;;;5053091;28;20025;-70
2023/01/17 08:42:56;;;;;;;6.25;4.88;;;;;;;;;;5052872;28;20438;-70
2023/01/17 08:45:22;;;;;;;6.50;5.20;;;;;;;;;;5052104;28;20024;-70
2023/01/17 08:47:48;;;;;;;5.57;4.40;;;;;;;;;;5052132;28;20029;-69
2023/01/17 08:50:14;;;;;;;6.30;4.80;;;;;;;;;;5052448;28;20029;-72
2023/01/17 08:52:40;;;;;;;6.22;5.00;;;;;;;;;;5049110;28;20036;-69
2023/01/17 08:55:08;;;;;;;5.65;4.68;;;;;;;;;;5049065;28;20052;-73
2023/01/17 08:57:34;;;;;;;5.30;4.38;;;;;;;;;;5052096;28;20029;-73
2023/01/17 08:59:59;;;;;;;6.47;4.57;;;;;;;;;;5051176;28;20037;-71
2023/01/17 09:02:25;;;;;;;5.93;4.65;;;;;;;;;;5050849;28;20911;-71
2023/01/17 09:04:52;;;;;;;6.45;5.03;;;;;;;;;;5050695;28;20030;-71
2023/01/17 09:07:19;;;;;;;7.20;4.75;;;;;;;;;;5037889;28;20037;-72
2023/01/17 09:09:45;;;;;;;5.82;4.57;;;;;;;;;;5034149;28;20045;-71
2023/01/17 09:12:11;;;;;;;5.68;4.82;;;;;;;;;;5035962;28;20033;-72
2023/01/17 09:14:37;;;;;;;6.45;4.68;;;;;;;;;;5031152;28;20042;-71
2023/01/17 09:17:04;;;;;;;6.40;4.75;;;;;;;;;;5033590;28;20943;-69
2023/01/17 09:19:30;;;;;;;5.82;4.75;;;;;;;;;;5039927;28;20036;-71
2023/01/17 09:21:55;;;;;;;5.20;4.15;;;;;;;;;;5014445;28;20029;-69
2023/01/17 09:24:21;;;;;;;6.22;4.65;;;;;;;;;;5041647;28;20056;-70
2023/01/17 09:26:47;;;;;;;4.88;4.13;;;;;;;;;;5050350;28;20075;-69
2023/01/17 09:29:16;;;;;;;5.30;4.28;;;;;;;;;;5050710;28;20104;-70
2023/01/17 09:31:42;;;;;;;6.17;4.53;;;;;;;;;;5045089;28;20540;-71
2023/01/17 09:34:08;;;;;;;5.53;4.57;;;;;;;;;;5039313;28;20021;-71
2023/01/17 09:36:34;;;;;;;5.05;4.13;;;;;;;;;;5039143;28;20107;-72
2023/01/17 09:39:01;;;;;;;5.30;4.43;;;;;;;;;;5041191;28;20092;-72
2023/01/17 09:42:09;;;;;;;5.03;4.22;;;;;;;;;;5038053;28;20031;-71
2023/01/17 09:44:42;;;;;;;4.70;4.03;;;;;;;;;;5039220;28;20025;-68
2023/01/17 09:47:17;;;;;;;5.38;4.55;;;;;;;;;;5038386;28;20830;-72
2023/01/17 09:49:46;;;;;;;5.15;4.28;;;;;;;;;;5037902;28;20032;-71
2023/01/17 09:52:22;;;;;;;5.30;4.18;;;;;;;;;;5047108;28;20738;-71
2023/01/17 09:54:49;;;;;;;4.40;3.95;;;;;;;;;;5050215;28;20451;-72
2023/01/17 09:57:53;;;;;;;4.80;3.67;;;;;;;;;;5050238;28;20036;-70
2023/01/17 10:00:33;;;;;;;4.72;4.05;;;;;;;;;;5020168;28;20043;-73
2023/01/17 10:03:18;;;;;;;5.60;4.07;;;;;;;;;;5029183;28;20095;-71
2023/01/17 10:06:05;;;;;;;4.70;4.20;;;;;;;;;;5040908;28;20033;-69
2023/01/17 10:09:06;;;;;;;4.95;4.03;;;;;;;;;;5025165;28;20049;-67
2023/01/17 10:11:32;;;;;;;6.30;3.85;;;;;;;;;;5042212;28;20030;-69
2023/01/17 10:14:32;;;;;;;4.72;4.05;;;;;;;;;;5053564;28;20634;-71
2023/01/17 10:17:00;;;;;;;5.30;3.97;;;;;;;;;;5054112;28;20589;-68
2023/01/17 10:19:44;;;;;;;4.93;4.03;;;;;;;;;;5053890;28;20025;-69
2023/01/17 10:22:24;;;;;;;4.25;3.80;;;;;;;;;;5053855;28;20025;-70
2023/01/17 10:25:06;;;;;;;4.80;3.90;;;;;;;;;;5050317;28;20043;-69
2023/01/17 10:27:44;;;;;;;5.57;4.22;;;;;;;;;;5052998;28;20029;-70
2023/01/17 10:30:33;;;;;;;5.50;4.22;;;;;;;;;;5033781;28;20025;-68
2023/01/17 10:33:08;;;;;;;5.13;4.20;;;;;;;;;;5049146;28;20029;-71
2023/01/17 10:35:36;;;;;;;4.13;3.45;;;;;;;;;;5037873;28;20691;-69
2023/01/17 10:38:06;;;;;;;4.47;3.60;;;;;;;;;;5033412;28;20152;-71
2023/01/17 10:40:49;;;;;;;5.13;4.10;;;;;;;;;;5035325;28;20075;-71
2023/01/17 10:43:19;;;;;;;5.72;3.83;;;;;;;;;;5049036;28;20068;-70
2023/01/17 10:45:54;;;;;;;;;;;;;;;;;;5052954;28;20021;-68
2023/01/17 10:48:37;;;;;;;5.10;3.95;;;;;;;;;;5053115;28;19919;-69
2023/01/17 10:51:21;;;;;;;5.05;3.75;;;;;;;;;;5053517;28;20106;-69
2023/01/17 10:54:17;;;;;;;3.88;3.38;;;;;;;;;;5039545;28;20057;-68
2023/01/17 10:56:42;;;;;;;4.15;3.53;;;;;;;;;;5036843;28;20021;-70
2023/01/17 10:59:29;;;;;;;5.63;3.92;;;;;;;;;;5049528;28;20025;-70
2023/01/17 11:01:56;;;;;;;4.53;3.55;;;;;;;;;;5047806;28;20548;-71
2023/01/17 11:04:30;;;;;;;7.25;4.00;;;;;;;;;;5034820;28;20064;-69
2023/01/17 11:07:17;;;;;;;4.25;3.63;;;;;;;;;;5049705;28;20503;-72
2023/01/17 11:09:45;;;;;;;2.60;2.28;;;;;;;;;;5040978;28;20053;-69
2023/01/17 11:12:45;;;;;;;3.17;2.55;;;;;;;;;;5040784;28;20021;-68
2023/01/17 11:15:11;;;;;;;;;;;;;;;;;;5042968;28;20020;-69
2023/01/17 11:18:01;;;;;;;2.50;2.30;;;;;;;;;;5039782;28;19950;-68
2023/01/17 11:20:30;;;;;;;3.17;2.40;;;;;;;;;;5041059;28;20029;-66
2023/01/17 11:23:22;;;;;;;3.38;2.72;;;;;;;;;;5041272;28;20021;-67
2023/01/17 11:25:56;;;;;;;4.03;2.55;;;;;;;;;;5042194;28;20029;-69
2023/01/17 11:28:25;;;;;;;2.90;2.60;;;;;;;;;;5023884;28;20030;-69
2023/01/17 11:31:07;;;;;;;4.43;2.83;;;;;;;;;;5040405;28;20776;-69
2023/01/17 11:34:04;;;;;;;3.65;2.63;;;;;;;;;;5036900;28;20021;-68
2023/01/17 11:36:34;;;;;;;3.90;2.90;;;;;;;;;;5034723;28;20624;-69
2023/01/17 11:39:05;;;;;;;5.22;3.05;;;;;;;;;;5044319;28;20132;-68
2023/01/17 11:41:39;;;;;;;3.83;2.95;;;;;;;;;;5033814;28;20080;-67
2023/01/17 11:44:26;;;;;;;3.40;3.00;;;;;;;;;;5032325;28;20087;-67
2023/01/17 11:47:13;;;;;;;3.88;3.03;;;;;;;;;;5032221;28;20710;-68
2023/01/17 11:49:41;;;;;;;4.95;3.05;;;;;;;;;;5031965;28;20025;-67
2023/01/17 11:52:16;;;;;;;3.58;3.28;;;;;;;;;;5031992;28;20017;-67
2023/01/17 11:54:45;;;;;;;4.97;3.38;;;;;;;;;;5032464;28;20033;-69
2023/01/17 11:57:23;;;;;;;3.25;2.80;;;;;;;;;;5032277;28;20030;-68
2023/01/17 11:59:54;;;;;;;4.03;3.25;;;;;;;;;;5051181;28;20488;-67
2023/01/17 12:02:33;;;;;;;3.10;2.80;;;;;;;;;;5051719;28;20099;-68
2023/01/17 12:05:33;;;;;;;3.95;3.10;;;;;;;;;;5051969;28;20029;-68
2023/01/17 12:08:21;;;;;;;3.45;3.13;;;;;;;;;;5046534;28;20056;-68
2023/01/17 12:10:53;;;;;;;3.78;2.92;;;;;;;;;;5041272;28;20053;-67
2023/01/17 12:16:34;;;;;;;4.55;3.03;;;;;;;;;;4941668;29;20098;-68
2023/01/17 12:19:11;;;;;;;3.92;3.10;;;;;;;;;;4946066;29;20181;-67
2023/01/17 12:21:51;;;;;;;3.63;2.90;;;;;;;;;;5007046;28;20037;-67
2023/01/17 12:24:33;;;;;;;4.33;3.10;;;;;;;;;;5048060;28;20034;-68
2023/01/17 12:27:11;;;;;;;3.33;2.80;;;;;;;;;;5041602;28;20363;-70
2023/01/17 12:29:42;;;;;;;3.92;2.83;;;;;;;;;;5036044;28;20033;-68
2023/01/17 12:32:36;;;;;;;3.42;2.97;;;;;;;;;;5033994;28;20086;-67
2023/01/17 12:35:18;;;;;;;3.55;3.10;;;;;;;;;;5022280;28;20037;-68
2023/01/17 12:37:47;;;;;;;4.03;3.03;;;;;;;;;;5034647;28;20059;-67
2023/01/17 12:40:27;;;;;;;3.80;3.08;;;;;;;;;;5050245;28;20033;-68
2023/01/17 12:43:27;;;;;;;2.97;2.70;;;;;;;;;;5041988;28;20026;-68
2023/01/17 12:45:57;;;;;;;3.77;2.73;;;;;;;;;;5015309;28;20068;-68
2023/01/17 12:48:29;;;;;;;4.32;3.10;;;;;;;;;;5035103;28;20788;-65
2023/01/17 12:51:17;;;;;;;4.55;3.53;;;;;;;;;;5050067;28;20115;-66
2023/01/17 12:54:12;;;;;;;4.32;3.05;;;;;;;;;;5050094;28;20035;-68
2023/01/17 12:56:47;;;;;;;5.32;3.20;;;;;;;;;;5050399;28;20032;-66
2023/01/17 12:59:25;;;;;;;4.57;3.25;;;;;;;;;;5031952;28;20780;-66
2023/01/17 13:01:56;;;;;;;3.40;2.90;;;;;;;;;;5050243;28;20388;-66
2023/01/17 13:04:37;;;;;;;5.57;2.90;;;;;;;;;;5049897;28;20033;-66
2023/01/17 13:07:17;;;;;;;5.85;3.10;;;;;;;;;;5049965;28;20021;-68
2023/01/17 13:09:50;;;;;;;5.10;3.40;;;;;;;;;;5031786;28;20045;-67
2023/01/17 13:12:18;;;;;;;3.35;3.05;;;;;;;;;;5050019;28;20037;-66
2023/01/17 13:15:01;;;;;;;5.55;3.25;;;;;;;;;;5050024;28;20107;-68
2023/01/17 13:17:56;;;;;;;4.63;3.30;;;;;;;;;;5022936;28;20025;-67
2023/01/17 13:20:35;;;;;;;4.78;2.92;;;;;;;;;;5030086;28;20031;-66
2023/01/17 13:23:15;;;;;;;6.30;3.08;;;;;;;;;;5030131;28;20030;-66
2023/01/17 13:25:48;;;;;;;5.30;2.90;;;;;;;;;;5029812;28;20694;-65
2023/01/17 13:28:16;;;;;;;5.10;3.20;;;;;;;;;;5029594;28;20124;-66
2023/01/17 13:30:54;;;;;;;5.18;2.83;;;;;;;;;;5030008;28;20060;-65
2023/01/17 13:33:38;;;;;;;7.03;3.20;;;;;;;;;;5043408;28;20017;-64
2023/01/17 13:36:15;;;;;;;6.68;3.33;;;;;;;;;;5037851;28;20048;-66
2023/01/17 13:38:56;;;;;;;8.75;2.95;;;;;;;;;;5048061;28;20047;-65
2023/01/17 13:41:43;;;;;;;3.45;2.90;;;;;;;;;;5053660;28;20045;-66
2023/01/17 13:44:23;;;;;;;4.50;2.88;;;;;;;;;;5051091;28;20503;-65
2023/01/17 13:46:56;;;;;;;9.02;2.70;;;;;;;;;;5049998;28;20041;-66
2023/01/17 13:49:33;;;;;;;20.88;4.70;;;;;;;;;;5040568;28;20417;-66
2023/01/17 13:52:12;;;;;;;14.93;5.65;;;;;;;;;;5041776;28;20025;-65
2023/01/17 13:54:51;;;;;;;16.13;6.00;;;;;;;;;;5050737;28;20033;-66
2023/01/17 13:57:28;;;;;;;18.63;5.30;;;;;;;;;;5053409;28;20029;-66
2023/01/17 13:59:58;;;;;;;15.23;5.40;;;;;;;;;;5053990;28;20029;-66
2023/01/17 14:02:34;;;;;;;14.40;4.15;;;;;;;;;;5053200;28;20032;-65
2023/01/17 14:05:31;;;;;;;11.45;4.18;;;;;;;;;;5053028;28;20040;-66
2023/01/17 14:08:11;;;;;;;15.23;5.22;;;;;;;;;;5051621;28;20037;-66
2023/01/17 14:10:46;;;;;;;15.32;5.25;;;;;;;;;;5045440;28;20072;-65
2023/01/17 14:13:39;;;;;;;12.18;4.15;;;;;;;;;;5025619;28;20132;-65
2023/01/17 14:16:26;;;;;;;16.98;5.28;;;;;;;;;;5043327;28;20037;-65
2023/01/17 14:18:53;;;;;;;11.57;4.47;;;;;;;;;;5043666;28;20033;-65
2023/01/17 14:21:23;;;;;;;13.18;4.68;;;;;;;;;;5048341;28;20071;-65
2023/01/17 14:24:02;;;;;;;13.35;4.88;;;;;;;;;;5033688;28;20029;-65
2023/01/17 14:26:53;;;;;;;13.87;5.13;;;;;;;;;;5033693;28;20029;-66
2023/01/17 14:29:37;;;;;;;;;;;;;;;;;;5042549;28;20040;-63
2023/01/17 14:32:05;;;;;;;17.63;5.65;;;;;;;;;;5053616;28;20007;-65
2023/01/17 14:34:31;;;;;;;20.65;5.72;;;;;;;;;;5053675;28;20032;-66
2023/01/17 14:37:17;;;;;;;12.05;5.80;;;;;;;;;;5044333;28;20393;-65
2023/01/17 14:39:47;;;;;;;13.70;5.25;;;;;;;;;;5042879;28;20392;-65
2023/01/17 14:42:17;;;;;;;13.80;5.25;;;;;;;;;;5030230;28;20585;-67
2023/01/17 14:44:48;;;;;;;11.40;5.57;;;;;;;;;;5041778;28;20037;-64
2023/01/17 14:47:15;;;;;;;13.38;5.20;;;;;;;;;;5032942;28;20033;-66
2023/01/17 14:49:41;;;;;;;16.40;5.68;;;;;;;;;;5043057;28;20025;-64
2023/01/17 14:52:14;;;;;;;15.32;5.65;;;;;;;;;;5053379;28;20468;-63
2023/01/17 14:54:49;;;;;;;13.98;5.45;;;;;;;;;;5053509;28;20100;-66
2023/01/17 14:57:26;;;;;;;14.68;5.22;;;;;;;;;;5053117;28;20079;-66
2023/01/17 15:00:14;;;;;;;16.33;5.68;;;;;;;;;;5042424;28;20198;-64
2023/01/17 15:02:42;;;;;;;15.00;6.00;;;;;;;;;;5044673;28;20051;-64
2023/01/17 15:05:12;;;;;;;15.60;5.07;;;;;;;;;;5039142;28;20426;-63
2023/01/17 15:07:38;;;;;;;17.00;6.10;;;;;;;;;;5037474;28;20038;-63
2023/01/17 15:10:04;;;;;;;14.85;5.18;;;;;;;;;;5031699;28;20061;-64
2023/01/17 15:12:30;;;;;;;12.82;4.93;;;;;;;;;;5049731;28;20477;-64
2023/01/17 15:14:57;;;;;;;12.52;5.40;;;;;;;;;;5049311;28;20029;-64
2023/01/17 15:17:23;;;;;;;15.85;5.30;;;;;;;;;;5040807;28;20021;-66
2023/01/17 15:20:08;;;;;;;16.10;5.55;;;;;;;;;;5035099;28;20397;-64
2023/01/17 15:22:34;;;;;;;13.27;5.10;;;;;;;;;;5040327;28;20546;-65
2023/01/17 15:25:01;;;;;;;17.55;6.03;;;;;;;;;;5042381;28;20037;-64
2023/01/17 15:27:27;;;;;;;13.77;5.38;;;;;;;;;;5037286;28;20033;-65
2023/01/17 15:29:56;;;;;;;16.50;5.88;;;;;;;;;;5034358;28;20030;-64
2023/01/17 15:32:30;;;;;;;13.65;5.60;;;;;;;;;;5022933;28;20017;-63
2023/01/17 15:34:58;;;;;;;16.30;6.00;;;;;;;;;;5035381;28;20029;-66
2023/01/17 15:37:31;;;;;;;14.77;6.18;;;;;;;;;;5032768;28;20557;-63
2023/01/17 15:40:22;;;;;;;13.13;5.97;;;;;;;;;;5032596;28;20049;-63
2023/01/17 15:42:57;;;;;;;18.63;6.40;;;;;;;;;;5032233;28;20057;-64
2023/01/17 15:45:29;;;;;;;15.07;5.70;;;;;;;;;;5014544;28;20029;-63
2023/01/17 15:47:56;;;;;;;20.42;6.68;;;;;;;;;;5021237;28;20071;-63
2023/01/17 15:50:29;;;;;;;16.17;5.65;;;;;;;;;;5051726;28;20040;-64
2023/01/17 15:53:00;;;;;;;20.38;6.38;;;;;;;;;;5052317;28;20064;-65
2023/01/17 15:55:34;;;;;;;15.25;5.70;;;;;;;;;;5038739;28;20052;-64
2023/01/17 15:58:00;;;;;;;17.05;5.85;;;;;;;;;;5040538;28;20777;-63
2023/01/17 16:00:37;;;;;;;17.55;6.30;;;;;;;;;;5022146;28;20028;-64
2023/01/17 16:03:25;;;;;;;19.95;6.32;;;;;;;;;;5040515;28;20358;-64
2023/01/17 16:05:53;;;;;;;15.80;5.43;;;;;;;;;;5032994;28;20700;-64
2023/01/17 16:08:37;;;;;;;17.08;6.72;;;;;;;;;;5050455;28;20045;-63
2023/01/17 16:11:05;;;;;;;12.57;5.22;;;;;;;;;;5051130;28;20033;-64
2023/01/17 16:13:41;;;;;;;20.45;5.47;;;;;;;;;;5051005;28;20099;-63
2023/01/17 16:16:22;;;;;;;12.23;5.22;;;;;;;;;;5052222;28;20211;-64
2023/01/17 16:19:01;;;;;;;14.40;5.57;;;;;;;;;;5044418;28;20381;-64
2023/01/17 16:21:30;;;;;;;12.60;5.88;;;;;;;;;;5050155;28;20029;-64
2023/01/17 16:23:58;;;;;;;11.98;5.82;;;;;;;;;;5051794;28;20371;-64
2023/01/17 16:26:23;;;;;;;16.70;6.07;;;;;;;;;;5051375;28;20039;-64
2023/01/17 16:28:49;;;;;;;16.17;6.28;;;;;;;;;;5051180;28;20037;-66
2023/01/17 16:31:16;;;;;;;11.27;5.68;;;;;;;;;;5051166;28;20021;-64
2023/01/17 16:33:41;;;;;;;13.60;5.35;;;;;;;;;;5051492;28;20392;-64